createdAt,value
2023-01-26T00:03:25.291Z,0.10
2023-01-26T00:08:30.495Z,0.20
2023-01-26T00:13:36.512Z,0.20
2023-01-26T00:18:43.489Z,0.20
2023-01-26T00:23:49.457Z,0.20
2023-01-26T00:28:55.276Z,0.20
2023-01-26T00:34:00.574Z,0.30
2023-01-26T00:39:05.789Z,0.30
2023-01-26T00:44:10.905Z,0.30
2023-01-26T00:49:16.327Z,0.30
2023-01-26T00:54:21.481Z,0.30
2023-01-26T00:59:26.787Z,0.30
2023-01-26T01:04:32.195Z,0.30
2023-01-26T01:09:38.396Z,0.20
2023-01-26T01:14:43.703Z,0.20
2023-01-26T01:19:48.994Z,0.20
2023-01-26T01:24:55.715Z,0.30
2023-01-26T01:30:01.125Z,0.30
2023-01-26T01:35:06.701Z,0.30
2023-01-26T01:40:14.149Z,0.30
2023-01-26T01:45:29.540Z,0.30
2023-01-26T01:50:38.344Z,0.30
2023-01-26T01:55:43.742Z,0.30
2023-01-26T02:00:49.302Z,0.30
2023-01-26T02:06:03.470Z,0.30
2023-01-26T02:11:20.663Z,0.30
2023-01-26T02:16:26.025Z,0.30
2023-01-26T02:21:31.703Z,0.30
2023-01-26T02:26:38.499Z,0.30
2023-01-26T02:31:44.434Z,0.30
2023-01-26T02:36:58.563Z,0.30
2023-01-26T02:42:21.670Z,0.30
2023-01-26T02:47:26.961Z,0.30
2023-01-26T02:52:32.333Z,0.30
2023-01-26T02:57:37.731Z,0.40
2023-01-26T03:02:43.672Z,0.40
2023-01-26T03:07:49.186Z,0.40
2023-01-26T03:12:54.801Z,0.40
2023-01-26T03:18:17.952Z,0.40
2023-01-26T03:23:40.662Z,0.40
2023-01-26T03:28:46.044Z,0.40
2023-01-26T03:33:51.152Z,0.40
2023-01-26T03:38:56.449Z,0.40
2023-01-26T03:44:19.134Z,0.40
2023-01-26T03:49:41.913Z,0.40
2023-01-26T03:55:04.555Z,0.40
2023-01-26T04:00:10.808Z,0.40
2023-01-26T04:05:34.010Z,0.40
2023-01-26T04:10:39.528Z,0.40
2023-01-26T04:16:02.599Z,0.40
2023-01-26T04:21:25.740Z,0.40
2023-01-26T04:26:37.037Z,0.40
2023-01-26T04:31:43.187Z,0.40
2023-01-26T04:36:48.517Z,0.40
2023-01-26T04:41:53.793Z,0.40
2023-01-26T04:46:59.191Z,0.40
2023-01-26T04:52:04.463Z,0.40
2023-01-26T04:57:10.034Z,0.40
2023-01-26T05:02:15.564Z,0.50
2023-01-26T05:07:20.867Z,0.50
2023-01-26T05:12:35.362Z,0.50
2023-01-26T05:17:40.769Z,0.50
2023-01-26T05:22:45.882Z,0.50
2023-01-26T05:27:51.215Z,0.50
2023-01-26T05:33:05.002Z,0.50
2023-01-26T05:38:10.429Z,0.60
2023-01-26T05:43:15.739Z,0.60
2023-01-26T05:48:21.530Z,0.60
2023-01-26T05:53:26.739Z,0.60
2023-01-26T05:58:31.979Z,0.70
2023-01-26T06:03:37.287Z,0.70
2023-01-26T06:08:43.015Z,0.70
2023-01-26T06:13:48.919Z,0.70
2023-01-26T06:18:54.245Z,0.60
2023-01-26T06:24:00.554Z,0.70
2023-01-26T06:29:06.152Z,0.70
2023-01-26T06:34:11.455Z,0.70
2023-01-26T06:39:17.294Z,0.70
2023-01-26T06:44:22.538Z,0.70
2023-01-26T06:49:27.675Z,0.80
2023-01-26T06:54:32.923Z,0.70
2023-01-26T06:59:38.203Z,0.70
2023-01-26T07:04:43.506Z,0.80
2023-01-26T07:09:48.776Z,0.80
2023-01-26T07:14:53.902Z,0.80
2023-01-26T07:19:59.149Z,0.80
2023-01-26T07:25:04.404Z,0.80
2023-01-26T07:30:11.044Z,0.80
2023-01-26T07:35:16.691Z,0.80
2023-01-26T07:40:22.084Z,0.80
2023-01-26T07:45:28.206Z,0.80
2023-01-26T07:50:33.400Z,0.90
2023-01-26T07:55:38.615Z,0.90
2023-01-26T08:00:45.523Z,0.90
2023-01-26T08:05:53.996Z,0.90
2023-01-26T08:11:02.290Z,0.90
2023-01-26T08:16:13.452Z,1.00
2023-01-26T08:21:20.140Z,1.00
2023-01-26T08:26:25.542Z,1.00
2023-01-26T08:31:33.665Z,1.00
2023-01-26T08:36:40.662Z,1.10
2023-01-26T08:41:47.726Z,1.10
2023-01-26T08:46:53.098Z,1.20
2023-01-26T08:52:00.894Z,1.20
2023-01-26T08:57:09.567Z,1.20
2023-01-26T09:02:15.910Z,1.20
2023-01-26T09:07:21.315Z,1.30
2023-01-26T09:12:27.113Z,1.20
2023-01-26T09:17:34.547Z,1.20
2023-01-26T09:22:46.336Z,1.20
2023-01-26T09:27:55.665Z,1.20
2023-01-26T09:33:02.335Z,1.20
2023-01-26T09:38:07.903Z,1.20
2023-01-26T09:43:34.757Z,1.30
2023-01-26T09:48:53.711Z,1.30
2023-01-26T09:54:04.793Z,1.40
2023-01-26T09:59:37.530Z,1.40
2023-01-26T10:04:47.657Z,1.50
2023-01-26T10:09:56.327Z,1.50
2023-01-26T10:15:13.208Z,1.50
2023-01-26T10:20:37.292Z,1.50
2023-01-26T10:25:46.290Z,1.50
2023-01-26T10:30:52.857Z,1.50
2023-01-26T10:35:58.384Z,1.50
2023-01-26T10:41:08.785Z,1.60
2023-01-26T10:46:32.152Z,1.60
2023-01-26T10:51:40.269Z,1.60
2023-01-26T10:57:17.099Z,1.60
2023-01-26T11:02:30.684Z,1.60
2023-01-26T11:07:46.528Z,1.60
2023-01-26T11:12:53.972Z,1.60
2023-01-26T11:18:04.621Z,1.60
2023-01-26T11:23:19.727Z,1.60
2023-01-26T11:28:41.830Z,1.60
2023-01-26T11:34:00.062Z,1.70
2023-01-26T11:39:30.649Z,1.70
2023-01-26T11:44:58.405Z,1.70
2023-01-26T11:50:27.193Z,1.70
2023-01-26T11:55:53.595Z,1.70
2023-01-26T12:01:02.071Z,1.70
2023-01-26T12:06:38.719Z,1.70
2023-01-26T12:11:47.926Z,1.80
2023-01-26T12:17:18.943Z,1.70
2023-01-26T12:22:41.202Z,1.80
2023-01-26T12:27:51.306Z,1.70
2023-01-26T12:33:04.089Z,1.80
2023-01-26T12:50:42.766Z,1.70
2023-01-26T13:14:31.867Z,1.70
2023-01-26T13:19:44.908Z,1.70
2023-01-26T13:25:06.713Z,1.70
2023-01-26T13:30:36.667Z,1.70
2023-01-26T13:35:43.532Z,1.70
2023-01-26T13:40:51.375Z,1.70
2023-01-26T13:46:25.496Z,1.70
2023-01-26T13:51:40.464Z,1.70
2023-01-26T13:57:14.855Z,1.70
2023-01-26T14:08:28.046Z,1.60
2023-01-26T14:13:47.187Z,1.70
2023-01-26T14:19:02.404Z,1.70
2023-01-26T14:24:18.626Z,1.70
2023-01-26T14:29:28.225Z,1.70
2023-01-26T14:34:36.928Z,1.70
2023-01-26T14:39:59.702Z,1.70
2023-01-26T14:45:10.943Z,1.70
2023-01-26T14:51:10.701Z,1.70
2023-01-26T14:56:35.621Z,1.60
2023-01-26T15:02:12.241Z,1.60
2023-01-26T15:13:37.793Z,1.60
2023-01-26T15:25:07.884Z,1.60
2023-01-26T15:30:19.944Z,1.60
2023-01-26T15:52:53.241Z,1.60
2023-01-26T15:53:13.235Z,1.60
2023-01-26T15:58:39.659Z,1.60
2023-01-26T16:03:52.820Z,1.60
2023-01-26T16:09:29.285Z,1.60
2023-01-26T16:14:21.614Z,1.60
2023-01-26T16:19:36.082Z,1.60
2023-01-26T16:24:46.648Z,1.60
2023-01-26T16:30:24.388Z,1.60
2023-01-26T16:35:30.552Z,1.60
2023-01-26T16:46:35.857Z,1.50
2023-01-26T16:51:45.671Z,1.50
2023-01-26T16:57:30.602Z,1.40
2023-01-26T17:02:43.444Z,1.40
2023-01-26T17:07:50.752Z,1.40
2023-01-26T17:18:40.662Z,1.30
2023-01-26T17:23:52.352Z,1.30
2023-01-26T17:29:00.239Z,1.30
2023-01-26T17:34:16.700Z,1.30
2023-01-26T17:39:25.366Z,1.30
2023-01-26T17:44:37.699Z,1.30
2023-01-26T17:50:22.214Z,1.30
2023-01-26T17:55:36.953Z,1.30
2023-01-26T18:00:42.793Z,1.30
2023-01-26T18:05:57.208Z,1.30
2023-01-26T18:11:23.689Z,1.30
2023-01-26T18:16:28.865Z,1.30
2023-01-26T18:21:35.314Z,1.30
2023-01-26T18:26:41.122Z,1.30
2023-01-26T18:31:48.319Z,1.20
2023-01-26T18:36:56.175Z,1.30
2023-01-26T18:42:01.530Z,1.20
2023-01-26T18:47:07.997Z,1.20
2023-01-26T18:52:13.411Z,1.20
2023-01-26T18:57:19.206Z,1.10
2023-01-26T19:02:25.088Z,1.10
2023-01-26T19:07:34.012Z,1.10
2023-01-26T19:12:40.834Z,1.20
2023-01-26T19:17:46.521Z,1.10
2023-01-26T19:22:53.491Z,1.10
2023-01-26T19:33:54.548Z,1.10
2023-01-26T19:39:04.056Z,1.10
2023-01-26T19:44:09.473Z,1.00
2023-01-26T19:49:16.341Z,1.00
2023-01-26T19:54:21.789Z,1.00
2023-01-26T19:59:27.666Z,1.00
2023-01-26T20:04:33.271Z,0.90
2023-01-26T20:09:40.322Z,0.90
2023-01-26T20:14:46.030Z,1.00
2023-01-26T20:20:06.723Z,1.00
2023-01-26T20:25:21.379Z,1.00
2023-01-26T20:30:32.164Z,1.00
2023-01-26T20:35:43.245Z,0.90
2023-01-26T20:40:53.138Z,1.00
2023-01-26T20:46:01.064Z,1.00
2023-01-26T20:51:21.490Z,1.00
2023-01-26T20:56:36.099Z,1.00
2023-01-26T21:07:23.573Z,0.90
2023-01-26T21:12:49.088Z,0.90
2023-01-26T21:18:14.297Z,0.90
2023-01-26T21:23:24.878Z,0.90
2023-01-26T21:28:30.848Z,0.90
2023-01-26T21:33:39.059Z,0.90
2023-01-26T21:38:48.113Z,0.90
2023-01-26T21:43:59.731Z,0.90
2023-01-26T21:49:05.333Z,0.90
2023-01-26T21:54:11.614Z,0.80
2023-01-26T21:59:18.236Z,0.90
2023-01-26T22:04:26.504Z,0.90
2023-01-26T22:09:35.078Z,0.90
2023-01-26T22:14:40.879Z,0.90
2023-01-26T22:19:48.113Z,0.80
2023-01-26T22:24:54.035Z,0.80
2023-01-26T22:29:59.625Z,0.90
2023-01-26T22:35:06.928Z,0.90
2023-01-26T22:40:14.219Z,0.90
2023-01-26T22:45:20.091Z,0.90
2023-01-26T22:50:25.631Z,0.80
2023-01-26T22:55:31.280Z,0.80
2023-01-26T23:00:38.651Z,0.70
2023-01-26T23:05:45.804Z,0.70
2023-01-26T23:10:51.356Z,0.70
2023-01-26T23:15:56.810Z,0.70
2023-01-26T23:21:02.611Z,0.70
2023-01-26T23:26:08.877Z,0.60
2023-01-26T23:31:16.783Z,0.70
2023-01-26T23:36:22.273Z,0.60
2023-01-26T23:41:29.163Z,0.60
2023-01-26T23:46:34.769Z,0.70
2023-01-26T23:51:40.272Z,0.70
2023-01-26T23:56:45.764Z,0.60
